Time;durP1;ratioP1;P1;durP2;ratioP2;P2;SDS_P1;SDS_P2;PMS_P1;PMS_P2;Temp;Humidity;BMP_temperature;BMP_pressure;BME280_temperature;BME280_humidity;BME280_pressure;Samples;Min_cycle;Max_cycle;Signal;HPM_P1;HPM_P2
2022/02/26 00:00:25;;;;;;;1.80;1.70;;;3.70;99.90;;;;;;5075979;28;20549;-64
2022/02/26 00:02:51;;;;;;;2.10;1.50;;;3.70;99.90;;;;;;5075839;28;20176;-67
2022/02/26 00:05:17;;;;;;;2.42;2.33;;;3.80;99.90;;;;;;5075551;28;20220;-64
2022/02/26 00:07:42;;;;;;;5.93;2.20;;;3.80;99.90;;;;;;5076058;28;20199;-65
2022/02/26 00:10:09;;;;;;;12.17;1.97;;;3.80;99.90;;;;;;5076037;28;20230;-64
2022/02/26 00:12:34;;;;;;;1.98;1.58;;;3.80;99.90;;;;;;5075674;28;20161;-64
2022/02/26 00:15:00;;;;;;;3.23;2.30;;;3.80;99.90;;;;;;5075434;28;20527;-65
2022/02/26 00:17:26;;;;;;;1.77;1.67;;;3.80;99.90;;;;;;5075946;28;20196;-65
2022/02/26 00:19:52;;;;;;;2.37;2.17;;;3.90;99.90;;;;;;5075678;28;20439;-66
2022/02/26 00:22:17;;;;;;;3.83;2.57;;;3.90;99.90;;;;;;5075799;28;20165;-64
2022/02/26 00:24:43;;;;;;;1.57;1.47;;;3.90;99.90;;;;;;5074111;28;20184;-66
2022/02/26 00:27:09;;;;;;;2.33;2.10;;;3.90;99.90;;;;;;5075523;28;20177;-64
2022/02/26 00:29:35;;;;;;;1.70;1.60;;;4.00;99.90;;;;;;5075456;28;20519;-66
2022/02/26 00:32:04;;;;;;;1.50;1.20;;;4.00;99.90;;;;;;5075491;28;20168;-66
2022/02/26 00:34:30;;;;;;;1.63;1.48;;;4.00;99.90;;;;;;5074964;28;20199;-65
2022/02/26 00:36:55;;;;;;;4.80;1.60;;;4.00;99.90;;;;;;5075417;28;20196;-65
2022/02/26 00:39:21;;;;;;;3.30;1.90;;;4.00;99.90;;;;;;5075536;28;20418;-64
2022/02/26 00:41:48;;;;;;;1.53;1.43;;;4.00;99.90;;;;;;5075392;28;20398;-65
2022/02/26 00:44:14;;;;;;;3.58;2.03;;;4.10;99.90;;;;;;5073666;28;20480;-65
2022/02/26 00:46:39;;;;;;;3.40;1.30;;;4.00;99.90;;;;;;5075450;28;20631;-65
2022/02/26 00:51:51;;;;;;;2.40;2.30;;;4.10;99.90;;;;;;5075728;28;20175;-66
2022/02/26 00:54:17;;;;;;;1.60;1.45;;;4.10;99.90;;;;;;5074811;28;20699;-65
2022/02/26 00:56:43;;;;;;;1.23;1.13;;;4.20;99.90;;;;;;5074925;28;20209;-65
2022/02/26 00:59:09;;;;;;;11.02;1.63;;;4.10;99.90;;;;;;5075164;28;20450;-65
2022/02/26 01:01:36;;;;;;;1.40;1.30;;;4.10;99.90;;;;;;5073611;28;20226;-65
2022/02/26 01:04:03;;;;;;;1.33;1.25;;;4.10;99.90;;;;;;5074142;28;20677;-64
2022/02/26 01:06:29;;;;;;;1.38;1.27;;;4.10;99.90;;;;;;5075176;28;20180;-65
2022/02/26 01:08:54;;;;;;;3.03;1.67;;;4.10;99.90;;;;;;5074673;28;20165;-64
2022/02/26 01:11:20;;;;;;;3.00;1.40;;;4.10;99.90;;;;;;5075020;28;20822;-64
2022/02/26 01:13:46;;;;;;;5.83;2.13;;;4.20;99.90;;;;;;5074129;28;20247;-65
2022/02/26 01:16:11;;;;;;;2.40;2.20;;;4.10;99.90;;;;;;5074526;28;20659;-64
2022/02/26 01:18:37;;;;;;;5.60;1.90;;;4.20;99.90;;;;;;5074746;28;20172;-64
2022/02/26 01:21:03;;;;;;;1.60;1.50;;;4.10;99.90;;;;;;5074591;28;20210;-64
2022/02/26 01:23:28;;;;;;;3.60;1.87;;;4.20;99.90;;;;;;5074125;28;20573;-66
2022/02/26 01:25:54;;;;;;;1.63;1.53;;;4.20;99.90;;;;;;5073188;28;20238;-65
2022/02/26 01:28:20;;;;;;;2.07;1.87;;;4.20;99.90;;;;;;5074481;28;20411;-64
2022/02/26 01:30:46;;;;;;;1.93;1.80;;;4.20;99.90;;;;;;5074350;28;20403;-66
2022/02/26 01:33:12;;;;;;;4.35;1.88;;;4.20;99.90;;;;;;5074430;28;20259;-65
2022/02/26 01:35:38;;;;;;;1.73;1.63;;;4.20;99.90;;;;;;5073776;28;20287;-65
2022/02/26 01:38:03;;;;;;;1.53;1.43;;;4.10;99.90;;;;;;5074129;28;20169;-64
2022/02/26 01:40:29;;;;;;;3.03;2.20;;;4.10;99.90;;;;;;5074033;28;20499;-64
2022/02/26 01:42:55;;;;;;;1.30;1.10;;;4.10;99.90;;;;;;5074084;28;20256;-65
2022/02/26 01:45:23;;;;;;;4.10;1.73;;;4.10;99.90;;;;;;5073692;28;20830;-64
2022/02/26 01:47:48;;;;;;;1.50;1.35;;;4.10;99.90;;;;;;5073998;28;20169;-64
2022/02/26 01:50:16;;;;;;;3.33;1.50;;;4.10;99.90;;;;;;5073034;28;20176;-66
2022/02/26 01:52:42;;;;;;;1.30;1.20;;;4.10;99.90;;;;;;5073915;28;20449;-64
2022/02/26 01:55:09;;;;;;;1.10;1.10;;;4.10;99.90;;;;;;5073497;28;20208;-65
2022/02/26 01:57:35;;;;;;;2.25;1.70;;;4.10;99.90;;;;;;5073934;28;20192;-65
2022/02/26 02:00:02;;;;;;;3.38;2.50;;;4.00;99.90;;;;;;5072561;28;20197;-64
2022/02/26 02:02:28;;;;;;;2.45;1.63;;;4.00;99.90;;;;;;5073823;28;20176;-64
2022/02/26 02:04:53;;;;;;;8.13;1.50;;;3.90;99.90;;;;;;5073328;28;20688;-66
2022/02/26 02:07:19;;;;;;;3.57;1.80;;;3.80;99.90;;;;;;5073644;28;20321;-64
2022/02/26 02:09:45;;;;;;;1.60;1.50;;;3.70;99.90;;;;;;5074026;28;20173;-63
2022/02/26 02:12:10;;;;;;;3.10;1.80;;;3.60;99.90;;;;;;5073895;28;20218;-64
2022/02/26 02:14:36;;;;;;;3.20;1.70;;;3.50;99.90;;;;;;5073238;28;20196;-64
2022/02/26 02:17:03;;;;;;;2.43;2.20;;;3.50;99.90;;;;;;5073483;28;20193;-63
2022/02/26 02:19:32;;;;;;;2.15;2.05;;;3.40;99.90;;;;;;5073911;28;20403;-65
2022/02/26 02:22:05;;;;;;;2.03;1.90;;;3.40;99.90;;;;;;5073895;28;20218;-65
2022/02/26 02:24:30;;;;;;;2.33;1.50;;;3.30;99.90;;;;;;5076359;28;20212;-64
2022/02/26 02:26:59;;;;;;;2.27;2.17;;;3.30;99.90;;;;;;5079283;28;20177;-64
2022/02/26 02:29:24;;;;;;;2.58;2.17;;;3.20;99.90;;;;;;5080300;28;20634;-64
2022/02/26 02:31:50;;;;;;;2.67;2.00;;;3.20;99.90;;;;;;5081753;28;20217;-64
2022/02/26 02:34:16;;;;;;;4.57;2.50;;;3.10;99.90;;;;;;5082273;28;20196;-65
2022/02/26 02:36:46;;;;;;;2.27;2.07;;;3.10;99.90;;;;;;5082203;28;20223;-65
2022/02/26 02:39:13;;;;;;;2.80;2.05;;;3.00;99.90;;;;;;5081621;28;20532;-63
2022/02/26 02:41:40;;;;;;;2.30;1.70;;;2.90;99.90;;;;;;5080144;28;20165;-65
2022/02/26 02:44:06;;;;;;;2.25;1.20;;;2.90;99.90;;;;;;5075326;28;20184;-64
2022/02/26 02:46:33;;;;;;;4.13;3.83;;;2.80;99.90;;;;;;5072945;28;20180;-65
2022/02/26 02:48:58;;;;;;;4.00;2.38;;;2.80;99.90;;;;;;5077550;28;20184;-63
2022/02/26 02:51:24;;;;;;;3.20;2.63;;;2.80;99.90;;;;;;5080340;28;20177;-63
2022/02/26 02:53:50;;;;;;;4.93;1.67;;;2.80;99.90;;;;;;5079296;28;20490;-65
2022/02/26 02:56:15;;;;;;;2.63;2.03;;;2.80;99.90;;;;;;5077307;28;20282;-65
2022/02/26 02:58:41;;;;;;;2.03;1.90;;;2.80;99.90;;;;;;5077420;28;20177;-64
2022/02/26 03:01:07;;;;;;;3.20;2.73;;;2.90;99.90;;;;;;5077208;28;20188;-65
2022/02/26 03:03:33;;;;;;;2.30;1.80;;;2.90;99.90;;;;;;5076924;28;20173;-64
2022/02/26 03:05:58;;;;;;;4.47;1.77;;;3.00;99.90;;;;;;5076998;28;20445;-64
2022/02/26 03:08:24;;;;;;;2.57;1.63;;;3.00;99.90;;;;;;5077214;28;20181;-64
2022/02/26 03:10:51;;;;;;;5.50;3.13;;;3.10;99.90;;;;;;5077128;28;20345;-65
2022/02/26 03:13:20;;;;;;;2.80;2.10;;;3.10;99.90;;;;;;5076831;28;20558;-65
2022/02/26 03:15:46;;;;;;;3.95;2.67;;;3.20;99.90;;;;;;5076756;28;20198;-65
2022/02/26 03:18:12;;;;;;;2.47;2.03;;;3.30;99.90;;;;;;5075468;28;20184;-66
2022/02/26 03:20:37;;;;;;;3.33;2.60;;;3.30;99.90;;;;;;5077022;28;20168;-65
2022/02/26 03:23:03;;;;;;;4.40;2.93;;;3.30;99.90;;;;;;5076678;28;20179;-65
2022/02/26 03:25:28;;;;;;;2.50;2.30;;;3.30;99.90;;;;;;5076346;28;20220;-64
2022/02/26 03:27:54;;;;;;;3.40;3.10;;;3.30;99.90;;;;;;5076798;28;20167;-65
2022/02/26 03:30:20;;;;;;;3.63;3.33;;;3.40;99.90;;;;;;5076756;28;20203;-65
2022/02/26 03:32:45;;;;;;;7.53;2.37;;;3.40;99.90;;;;;;5076892;28;20518;-66
2022/02/26 03:35:11;;;;;;;2.27;2.07;;;3.30;99.90;;;;;;5076228;28;20507;-65
2022/02/26 03:37:37;;;;;;;2.07;1.97;;;3.30;99.90;;;;;;5076523;28;20200;-65
2022/02/26 03:40:05;;;;;;;2.53;2.07;;;3.30;99.90;;;;;;5076889;28;20941;-65
2022/02/26 03:42:31;;;;;;;2.55;2.22;;;3.20;99.90;;;;;;5075158;28;20164;-64
2022/02/26 03:44:57;;;;;;;2.78;2.33;;;3.20;99.90;;;;;;5074656;28;20717;-66
2022/02/26 03:47:23;;;;;;;2.70;2.42;;;3.20;99.90;;;;;;5074870;28;20173;-64
2022/02/26 03:49:49;;;;;;;3.17;2.90;;;3.20;99.90;;;;;;5076315;28;20589;-64
2022/02/26 03:52:15;;;;;;;4.83;2.90;;;3.10;99.90;;;;;;5076208;28;20892;-64
2022/02/26 03:54:41;;;;;;;3.35;2.72;;;3.10;99.90;;;;;;5075820;28;20423;-64
2022/02/26 03:57:07;;;;;;;2.93;2.33;;;3.10;99.90;;;;;;5076118;28;20196;-65
2022/02/26 03:59:33;;;;;;;2.35;1.75;;;3.10;99.90;;;;;;5076137;28;20399;-65
2022/02/26 04:01:58;;;;;;;3.23;1.70;;;3.00;99.90;;;;;;5076001;28;20161;-64
2022/02/26 04:04:24;;;;;;;1.73;1.63;;;3.00;99.90;;;;;;5075323;28;20196;-63
2022/02/26 04:06:50;;;;;;;5.30;2.70;;;3.00;99.90;;;;;;5076053;28;20172;-64
2022/02/26 04:09:17;;;;;;;5.70;2.28;;;2.90;99.90;;;;;;5075922;28;20257;-64
2022/02/26 04:11:43;;;;;;;8.13;3.80;;;2.90;99.90;;;;;;5076072;28;20634;-65
2022/02/26 04:14:09;;;;;;;3.27;2.53;;;3.00;99.90;;;;;;5075279;28;20189;-64
2022/02/26 04:16:34;;;;;;;3.13;2.20;;;3.00;99.90;;;;;;5075578;28;20237;-65
2022/02/26 04:19:00;;;;;;;4.33;2.70;;;3.00;99.90;;;;;;5075645;28;20168;-64
2022/02/26 04:21:28;;;;;;;5.87;3.03;;;3.00;99.90;;;;;;5075794;28;20168;-66
2022/02/26 04:23:54;;;;;;;3.55;2.80;;;3.00;99.90;;;;;;5075180;28;20443;-65
2022/02/26 04:26:22;;;;;;;2.67;2.43;;;2.90;99.90;;;;;;5074393;28;20200;-64
2022/02/26 04:28:48;;;;;;;3.72;3.00;;;2.90;99.90;;;;;;5075406;28;20187;-65
2022/02/26 04:31:14;;;;;;;4.32;2.45;;;2.80;99.90;;;;;;5074278;28;20187;-64
2022/02/26 04:33:39;;;;;;;4.70;2.20;;;2.80;99.90;;;;;;5073738;28;20169;-66
2022/02/26 04:36:05;;;;;;;2.83;2.30;;;2.80;99.90;;;;;;5075316;28;20196;-64
2022/02/26 04:38:35;;;;;;;3.10;2.90;;;2.70;99.90;;;;;;5074121;28;20503;-65
2022/02/26 04:41:01;;;;;;;4.28;3.67;;;2.70;99.90;;;;;;5075446;28;20627;-65
2022/02/26 04:43:27;;;;;;;2.65;2.15;;;2.60;99.90;;;;;;5074891;28;20165;-65
2022/02/26 04:45:54;;;;;;;2.70;2.15;;;2.60;99.90;;;;;;5074901;28;20189;-65
2022/02/26 04:48:20;;;;;;;3.63;3.00;;;2.60;99.90;;;;;;5073863;28;20565;-65
2022/02/26 04:50:46;;;;;;;4.37;2.30;;;2.60;99.90;;;;;;5075092;28;20169;-65
2022/02/26 04:53:12;;;;;;;3.00;2.70;;;2.60;99.90;;;;;;5074964;28;20975;-65
2022/02/26 04:55:38;;;;;;;3.50;2.90;;;2.70;99.90;;;;;;5073148;28;20443;-65
2022/02/26 04:58:04;;;;;;;4.43;3.03;;;2.70;99.90;;;;;;5074714;28;20414;-64
2022/02/26 05:00:29;;;;;;;7.20;3.57;;;2.70;99.90;;;;;;5074794;28;20184;-65
2022/02/26 05:05:30;;;;;;;6.35;3.22;;;2.70;99.90;;;;;;4993623;26;20212;-65
2022/02/26 05:07:56;;;;;;;2.87;2.30;;;2.70;99.90;;;;;;5054735;28;20546;-65
2022/02/26 05:10:22;;;;;;;4.63;4.23;;;2.80;99.90;;;;;;5054289;28;20213;-64
2022/02/26 05:12:47;;;;;;;3.30;2.57;;;2.80;99.90;;;;;;5054445;28;20509;-65
2022/02/26 05:15:13;;;;;;;2.10;1.73;;;2.80;99.90;;;;;;5054391;28;20536;-65
2022/02/26 05:17:40;;;;;;;3.20;3.00;;;2.90;99.90;;;;;;5054602;28;20197;-65
2022/02/26 05:20:07;;;;;;;4.07;3.45;;;2.90;99.90;;;;;;5054515;28;20546;-65
2022/02/26 05:22:35;;;;;;;3.38;2.17;;;2.90;99.90;;;;;;5054757;28;20157;-64
2022/02/26 05:25:05;;;;;;;7.28;3.47;;;2.90;99.90;;;;;;5054172;28;20181;-65
2022/02/26 05:27:31;;;;;;;3.88;2.72;;;3.00;99.90;;;;;;5054503;28;20635;-65
2022/02/26 05:29:57;;;;;;;3.35;3.08;;;3.00;99.90;;;;;;5054167;28;20174;-65
2022/02/26 05:32:23;;;;;;;2.60;2.25;;;3.10;99.90;;;;;;5054250;28;20247;-64
2022/02/26 05:34:51;;;;;;;3.17;2.30;;;3.10;99.90;;;;;;5053696;28;20611;-64
2022/02/26 05:37:18;;;;;;;4.05;3.17;;;3.10;99.90;;;;;;5053957;28;20197;-64
2022/02/26 05:39:43;;;;;;;3.80;3.50;;;3.10;99.90;;;;;;5053963;28;20216;-64
2022/02/26 05:42:09;;;;;;;6.27;3.30;;;3.10;99.90;;;;;;5054145;28;20165;-65
2022/02/26 05:44:35;;;;;;;3.53;3.07;;;3.10;99.90;;;;;;5053574;28;20275;-66
2022/02/26 05:47:01;;;;;;;8.57;3.30;;;3.10;99.90;;;;;;5054065;28;20173;-65
2022/02/26 05:49:26;;;;;;;4.10;2.13;;;3.00;99.90;;;;;;5054244;28;20551;-66
2022/02/26 05:51:52;;;;;;;3.13;2.37;;;3.00;99.90;;;;;;5053919;28;20751;-65
2022/02/26 05:54:18;;;;;;;3.67;2.23;;;3.00;99.90;;;;;;5053530;28;20189;-65
2022/02/26 05:56:43;;;;;;;2.93;2.20;;;3.00;99.90;;;;;;5054072;28;20204;-65
2022/02/26 05:59:09;;;;;;;2.80;2.20;;;3.00;99.90;;;;;;5035953;28;20169;-66
2022/02/26 06:01:35;;;;;;;15.40;4.33;;;3.00;99.90;;;;;;5036019;28;20231;-64
2022/02/26 06:04:00;;;;;;;3.90;2.63;;;3.00;99.90;;;;;;5053181;28;20606;-66
2022/02/26 06:06:27;;;;;;;2.80;2.50;;;3.00;99.90;;;;;;5035175;28;20519;-65
2022/02/26 06:08:52;;;;;;;2.85;2.65;;;3.10;99.90;;;;;;5065528;28;20197;-64
2022/02/26 06:11:19;;;;;;;7.10;3.23;;;3.00;99.90;;;;;;5055758;28;20215;-65
2022/02/26 06:13:45;;;;;;;3.55;3.13;;;3.10;99.90;;;;;;5036683;28;20469;-65
2022/02/26 06:16:11;;;;;;;7.72;3.05;;;3.10;99.90;;;;;;5053388;28;20655;-64
2022/02/26 06:18:37;;;;;;;3.77;3.23;;;3.10;99.90;;;;;;5035513;28;20166;-65
2022/02/26 06:21:02;;;;;;;2.97;2.77;;;3.20;99.90;;;;;;5035572;28;20523;-64
2022/02/26 06:23:28;;;;;;;4.37;3.97;;;3.20;99.90;;;;;;5052163;28;20170;-65
2022/02/26 06:25:53;;;;;;;3.93;2.90;;;3.20;99.90;;;;;;5053687;28;20592;-65
2022/02/26 06:28:19;;;;;;;4.70;3.90;;;3.20;99.90;;;;;;5074058;28;20194;-65
2022/02/26 06:30:45;;;;;;;6.63;4.67;;;3.30;99.90;;;;;;5073846;28;20176;-65
2022/02/26 06:33:13;;;;;;;4.37;3.97;;;3.30;99.90;;;;;;5072965;28;20169;-65
2022/02/26 06:35:40;;;;;;;3.60;3.30;;;3.40;99.90;;;;;;5073139;28;20189;-65
2022/02/26 06:38:05;;;;;;;3.03;2.20;;;3.40;99.90;;;;;;5073579;28;20161;-64
2022/02/26 06:40:31;;;;;;;6.93;3.10;;;3.50;99.90;;;;;;5073285;28;20161;-65
2022/02/26 06:42:57;;;;;;;7.60;2.70;;;3.50;99.90;;;;;;5073100;28;20169;-65
2022/02/26 06:45:23;;;;;;;7.00;3.60;;;3.60;99.90;;;;;;5072803;28;20184;-64
2022/02/26 06:47:49;;;;;;;7.10;4.18;;;3.70;99.90;;;;;;5073114;28;20564;-65
2022/02/26 06:50:15;;;;;;;2.70;2.50;;;3.70;99.90;;;;;;5073101;28;20695;-65
2022/02/26 06:52:40;;;;;;;3.90;3.10;;;3.80;99.90;;;;;;5073252;28;20884;-64
2022/02/26 06:55:06;;;;;;;6.67;3.83;;;3.80;99.90;;;;;;5072661;28;20423;-65
2022/02/26 06:57:33;;;;;;;4.80;3.20;;;3.70;99.90;;;;;;5073248;28;20291;-66
2022/02/26 06:59:58;;;;;;;7.85;3.05;;;3.70;99.90;;;;;;5072942;28;20175;-64
2022/02/26 07:02:24;;;;;;;5.80;4.07;;;3.70;99.90;;;;;;5072519;28;20177;-66
2022/02/26 07:04:50;;;;;;;3.87;2.83;;;3.70;99.90;;;;;;5054187;28;20222;-65
2022/02/26 07:07:15;;;;;;;6.67;3.53;;;3.70;99.90;;;;;;5056093;28;20182;-65
2022/02/26 07:09:42;;;;;;;4.70;3.37;;;3.70;99.90;;;;;;5054359;28;20188;-64
2022/02/26 07:12:08;;;;;;;4.68;4.18;;;3.80;99.90;;;;;;5053067;28;20182;-64
2022/02/26 07:14:34;;;;;;;11.95;3.00;;;3.80;99.90;;;;;;5052348;28;20190;-65
2022/02/26 07:16:59;;;;;;;4.50;3.90;;;3.90;99.90;;;;;;5052710;28;20223;-65
2022/02/26 07:19:25;;;;;;;5.63;3.57;;;3.90;99.90;;;;;;5052885;28;20541;-65
2022/02/26 07:21:51;;;;;;;3.63;3.37;;;4.00;99.90;;;;;;5034970;28;20257;-65
2022/02/26 07:24:17;;;;;;;8.83;4.70;;;4.10;99.90;;;;;;5052298;28;20212;-65
2022/02/26 07:26:42;;;;;;;5.33;3.70;;;4.10;99.90;;;;;;5053042;28;20170;-64
2022/02/26 07:29:08;;;;;;;5.53;3.77;;;4.10;99.90;;;;;;5055496;28;20581;-65
2022/02/26 07:31:34;;;;;;;5.10;3.47;;;4.10;99.90;;;;;;5057221;28;20260;-64
2022/02/26 07:33:59;;;;;;;5.83;3.50;;;4.10;99.90;;;;;;5060930;28;20420;-68
2022/02/26 07:36:25;;;;;;;3.23;2.80;;;4.10;99.90;;;;;;5064682;28;20192;-66
2022/02/26 07:38:51;;;;;;;4.80;3.80;;;4.20;99.90;;;;;;5047945;28;20256;-65
2022/02/26 07:41:17;;;;;;;5.47;3.47;;;4.30;99.90;;;;;;5061221;28;20256;-65
2022/02/26 07:43:42;;;;;;;4.50;3.30;;;4.40;99.90;;;;;;5064381;28;20171;-66
2022/02/26 07:46:08;;;;;;;5.20;3.17;;;4.50;99.90;;;;;;5065409;28;20508;-64
2022/02/26 07:48:34;;;;;;;5.70;3.37;;;4.50;99.90;;;;;;5075929;28;20603;-65
2022/02/26 07:51:00;;;;;;;6.40;4.82;;;4.50;99.90;;;;;;5075907;28;20173;-65
2022/02/26 07:53:25;;;;;;;6.10;4.03;;;4.60;99.90;;;;;;5075691;28;20229;-65
2022/02/26 07:55:52;;;;;;;10.43;3.20;;;4.60;99.90;;;;;;5075888;28;20666;-66
2022/02/26 07:58:18;;;;;;;8.60;5.00;;;4.70;99.90;;;;;;5075779;28;20535;-68
2022/02/26 08:00:44;;;;;;;11.83;4.20;;;4.70;99.90;;;;;;5075929;28;20256;-68
2022/02/26 08:03:10;;;;;;;11.02;3.72;;;4.70;99.90;;;;;;5075569;28;20244;-68
2022/02/26 08:05:35;;;;;;;7.27;4.10;;;4.80;99.90;;;;;;5075468;28;20320;-67
2022/02/26 08:08:02;;;;;;;4.70;4.30;;;4.80;99.90;;;;;;5075687;28;20400;-67
2022/02/26 08:10:28;;;;;;;5.03;3.85;;;4.80;99.90;;;;;;5075291;28;20198;-63
2022/02/26 08:12:55;;;;;;;6.63;4.63;;;4.80;99.90;;;;;;5055902;28;20640;-61
2022/02/26 08:15:23;;;;;;;5.35;4.90;;;5.00;99.90;;;;;;5062122;28;20191;-63
2022/02/26 08:17:49;;;;;;;4.40;3.95;;;5.10;99.90;;;;;;5067041;28;20573;-63
2022/02/26 08:20:17;;;;;;;8.07;4.05;;;5.20;99.90;;;;;;5064462;28;20173;-63
2022/02/26 08:22:43;;;;;;;5.00;3.67;;;5.20;99.90;;;;;;5065739;28;20527;-70
2022/02/26 08:25:09;;;;;;;5.10;3.97;;;5.30;99.90;;;;;;5056684;28;20190;-65
2022/02/26 08:27:36;;;;;;;5.68;3.20;;;5.50;99.90;;;;;;5074063;28;20656;-65
2022/02/26 08:30:06;;;;;;;4.63;3.40;;;6.20;99.90;;;;;;5057014;28;20226;-66
2022/02/26 08:32:31;;;;;;;4.70;4.20;;;7.20;99.90;;;;;;5075029;28;20175;-67
2022/02/26 08:34:57;;;;;;;5.23;4.53;;;8.00;99.90;;;;;;5074717;28;20193;-66
2022/02/26 08:37:23;;;;;;;4.23;3.83;;;8.40;99.90;;;;;;5073297;28;20224;-69
2022/02/26 08:39:48;;;;;;;6.03;4.73;;;9.20;99.90;;;;;;5065520;28;20258;-65
2022/02/26 08:42:14;;;;;;;7.90;4.53;;;9.90;99.90;;;;;;5074548;28;20667;-66
2022/02/26 08:44:40;;;;;;;7.13;3.70;;;9.90;99.80;;;;;;5074453;28;20284;-66
2022/02/26 08:47:06;;;;;;;8.00;4.27;;;9.60;99.40;;;;;;5074225;28;20198;-66
2022/02/26 08:49:33;;;;;;;3.30;3.00;;;9.60;99.50;;;;;;5073844;28;20930;-66
2022/02/26 08:51:59;;;;;;;11.40;4.43;;;9.60;99.90;;;;;;5062547;28;20421;-64
2022/02/26 08:54:24;;;;;;;3.93;3.53;;;9.50;99.40;;;;;;5054138;28;20494;-64
2022/02/26 08:56:50;;;;;;;6.97;4.23;;;9.20;98.80;;;;;;5038163;28;20499;-67
2022/02/26 08:59:16;;;;;;;6.50;3.40;;;9.00;99.10;;;;;;5074695;28;20168;-67
2022/02/26 09:01:43;;;;;;;3.77;3.43;;;9.00;99.10;;;;;;5066996;28;20461;-69
2022/02/26 09:04:08;;;;;;;5.50;3.80;;;8.80;99.20;;;;;;5065703;28;20669;-67
2022/02/26 09:06:35;;;;;;;5.07;3.63;;;8.80;99.80;;;;;;5072882;28;20507;-68
2022/02/26 09:09:04;;;;;;;5.50;4.40;;;8.80;99.90;;;;;;5036531;28;20543;-68
2022/02/26 09:11:30;;;;;;;3.40;2.90;;;9.00;99.60;;;;;;5054454;28;20905;-68
2022/02/26 09:13:56;;;;;;;6.30;5.00;;;9.10;99.50;;;;;;5053967;28;20480;-64
2022/02/26 09:16:21;;;;;;;5.07;3.87;;;9.30;99.70;;;;;;5054421;28;20458;-64
2022/02/26 09:18:47;;;;;;;2.80;2.50;;;9.70;99.10;;;;;;5054227;28;20176;-68
2022/02/26 09:21:13;;;;;;;3.20;3.00;;;10.00;96.00;;;;;;5054328;28;20181;-69
2022/02/26 09:23:39;;;;;;;3.13;2.70;;;10.00;95.00;;;;;;5053856;28;20580;-68
2022/02/26 09:26:05;;;;;;;2.50;2.30;;;9.80;95.40;;;;;;5036374;28;20457;-68
2022/02/26 09:28:41;;;;;;;5.40;3.70;;;9.70;95.30;;;;;;5054417;28;20415;-68
2022/02/26 09:31:07;;;;;;;5.13;3.40;;;9.40;95.30;;;;;;5054344;28;20407;-68
2022/02/26 09:33:33;;;;;;;3.13;2.93;;;9.30;95.70;;;;;;5053827;28;20818;-68
2022/02/26 09:36:00;;;;;;;6.10;3.23;;;9.20;96.30;;;;;;5053805;28;20492;-67
2022/02/26 09:38:27;;;;;;;3.38;2.70;;;9.20;96.40;;;;;;5053778;28;20167;-68
2022/02/26 09:40:54;;;;;;;3.55;3.25;;;9.20;96.80;;;;;;5053938;28;20180;-66
2022/02/26 09:43:22;;;;;;;4.25;3.20;;;9.30;96.60;;;;;;5053995;28;20166;-67
2022/02/26 09:45:49;;;;;;;4.32;3.30;;;9.30;95.90;;;;;;5035810;28;20196;-66
2022/02/26 09:48:14;;;;;;;3.78;2.55;;;9.20;95.30;;;;;;5053989;28;20525;-67
2022/02/26 09:50:40;;;;;;;2.50;1.97;;;9.00;95.00;;;;;;5061706;28;20166;-65
2022/02/26 09:53:06;;;;;;;4.03;3.50;;;8.70;94.70;;;;;;5054975;28;20189;-68
2022/02/26 09:55:32;;;;;;;4.37;3.33;;;8.40;95.20;;;;;;5071453;28;20193;-68
2022/02/26 09:57:59;;;;;;;4.73;3.50;;;8.20;95.90;;;;;;5062618;28;20459;-66
2022/02/26 10:00:25;;;;;;;3.05;2.38;;;7.90;96.50;;;;;;5046218;28;20175;-64
2022/02/26 10:02:51;;;;;;;3.27;2.70;;;7.70;97.20;;;;;;5055664;28;20268;-65
2022/02/26 10:05:20;;;;;;;7.03;1.97;;;7.60;96.90;;;;;;5073004;28;20201;-65
2022/02/26 10:07:49;;;;;;;2.47;2.03;;;7.40;95.80;;;;;;5063883;28;20431;-68
2022/02/26 10:10:21;;;;;;;6.28;2.90;;;7.30;95.60;;;;;;5067180;28;20180;-67
2022/02/26 10:12:52;;;;;;;6.30;2.45;;;7.30;96.30;;;;;;5064271;28;20264;-66
2022/02/26 10:15:38;;;;;;;10.82;2.90;;;7.10;97.60;;;;;;5053053;28;20258;-65
2022/02/26 10:18:05;;;;;;;2.60;2.28;;;6.90;97.80;;;;;;5063506;28;20173;-65
2022/02/26 10:20:32;;;;;;;5.00;2.30;;;6.90;96.60;;;;;;5067817;28;20168;-64
2022/02/26 10:22:58;;;;;;;2.65;2.03;;;6.90;96.70;;;;;;5073139;28;20165;-66
2022/02/26 10:25:30;;;;;;;2.80;2.27;;;7.00;97.30;;;;;;5072743;28;20278;-65
2022/02/26 10:27:58;;;;;;;1.38;1.27;;;6.90;97.00;;;;;;5073375;28;20786;-65
2022/02/26 10:30:29;;;;;;;2.08;1.88;;;6.80;97.20;;;;;;5073186;28;20192;-64
2022/02/26 10:33:06;;;;;;;4.65;3.40;;;6.80;97.00;;;;;;5073812;28;20685;-65
2022/02/26 10:35:56;;;;;;;3.33;1.85;;;7.10;97.30;;;;;;5073294;28;20527;-65
2022/02/26 10:38:27;;;;;;;2.10;1.95;;;7.40;96.20;;;;;;5073231;28;20170;-67
2022/02/26 10:41:08;;;;;;;2.58;1.90;;;7.70;95.50;;;;;;5073038;28;20184;-64
2022/02/26 10:44:01;;;;;;;3.22;1.40;;;8.60;95.50;;;;;;5072796;28;20200;-65
2022/02/26 10:46:28;;;;;;;4.67;2.70;;;9.70;93.50;;;;;;5073139;28;20174;-68
2022/02/26 10:49:02;;;;;;;1.40;1.37;;;10.50;90.80;;;;;;5073233;28;20402;-66
2022/02/26 10:51:31;;;;;;;5.13;2.20;;;11.20;89.80;;;;;;5073064;28;20480;-66
2022/02/26 10:53:58;;;;;;;3.43;2.13;;;11.80;89.10;;;;;;5072825;28;20543;-66
2022/02/26 10:56:41;;;;;;;2.60;1.50;;;12.50;85.60;;;;;;5072859;28;20902;-66
2022/02/26 10:59:08;;;;;;;1.50;1.40;;;12.70;80.80;;;;;;5072481;28;20407;-66
2022/02/26 11:01:35;;;;;;;3.03;1.93;;;12.80;79.80;;;;;;5072699;28;20492;-66
2022/02/26 11:04:01;;;;;;;1.43;1.33;;;12.40;77.90;;;;;;5072085;28;20421;-67
2022/02/26 11:06:27;;;;;;;3.03;1.27;;;12.30;78.60;;;;;;5073181;28;20509;-65
2022/02/26 11:08:53;;;;;;;2.57;1.67;;;12.50;78.10;;;;;;5073310;28;20737;-64
2022/02/26 11:11:22;;;;;;;2.73;1.93;;;13.10;77.90;;;;;;5076206;28;20896;-66
2022/02/26 11:13:51;;;;;;;2.00;1.10;;;13.40;75.10;;;;;;5062429;28;20548;-61
2022/02/26 11:16:18;;;;;;;5.20;1.63;;;13.80;75.00;;;;;;5055051;28;20430;-60
2022/02/26 11:18:46;;;;;;;2.87;1.63;;;14.20;73.50;;;;;;5055613;28;20418;-67
2022/02/26 11:21:17;;;;;;;3.00;1.20;;;14.00;69.50;;;;;;5056268;28;20411;-65
2022/02/26 11:23:45;;;;;;;4.73;1.50;;;13.60;68.50;;;;;;5037969;28;20408;-66
2022/02/26 11:26:12;;;;;;;4.30;1.27;;;13.00;68.30;;;;;;5036710;28;20437;-68
2022/02/26 11:28:41;;;;;;;1.20;0.87;;;12.10;70.20;;;;;;5036677;28;20451;-69
2022/02/26 11:31:14;;;;;;;1.10;1.00;;;11.50;72.70;;;;;;5054692;28;20407;-67
2022/02/26 11:33:44;;;;;;;2.20;1.30;;;10.90;74.50;;;;;;5054497;28;20411;-68
2022/02/26 11:36:10;;;;;;;2.40;1.10;;;10.40;74.90;;;;;;5054864;28;20457;-64
2022/02/26 11:38:37;;;;;;;6.30;1.10;;;10.00;75.90;;;;;;5054794;28;20829;-66
2022/02/26 11:41:22;;;;;;;2.50;1.20;;;9.60;78.20;;;;;;5037653;28;20907;-65
2022/02/26 11:43:50;;;;;;;2.77;1.87;;;9.20;77.10;;;;;;5055795;28;20405;-64
2022/02/26 11:46:19;;;;;;;1.98;1.88;;;8.80;79.40;;;;;;5056103;28;20414;-65
2022/02/26 11:48:46;;;;;;;1.50;1.40;;;8.50;79.50;;;;;;5056140;28;20169;-65
2022/02/26 11:51:14;;;;;;;1.50;1.40;;;8.40;79.60;;;;;;5038171;28;20570;-64
2022/02/26 11:53:42;;;;;;;2.30;1.55;;;8.40;80.80;;;;;;5055594;28;20223;-63
2022/02/26 11:56:08;;;;;;;5.32;1.48;;;8.30;81.50;;;;;;5055827;28;20197;-64
2022/02/26 11:58:37;;;;;;;2.38;0.98;;;8.20;81.70;;;;;;5055660;28;20195;-64
2022/02/26 12:01:15;;;;;;;1.80;1.13;;;8.30;82.00;;;;;;5055844;28;20557;-64
2022/02/26 12:06:11;;;;;;;4.53;2.47;;;8.50;82.50;;;;;;5052138;28;20217;-64
2022/02/26 12:08:44;;;;;;;0.90;0.90;;;8.50;82.50;;;;;;5055699;28;20214;-65
2022/02/26 12:11:31;;;;;;;2.92;1.33;;;8.50;79.90;;;;;;5055624;28;20162;-65
2022/02/26 12:13:59;;;;;;;4.65;1.30;;;8.40;79.20;;;;;;5055099;28;20633;-63
2022/02/26 12:16:35;;;;;;;2.55;2.25;;;8.40;78.80;;;;;;5055236;28;20201;-63
2022/02/26 12:19:23;;;;;;;2.80;1.50;;;8.30;79.20;;;;;;5055455;28;20162;-65
2022/02/26 12:21:57;;;;;;;2.72;1.00;;;8.30;79.80;;;;;;5054264;28;20534;-65
2022/02/26 12:24:28;;;;;;;2.25;1.30;;;8.40;79.90;;;;;;5054342;28;20197;-65
2022/02/26 12:26:57;;;;;;;2.20;1.23;;;8.40;79.50;;;;;;5055647;28;20174;-65
2022/02/26 12:29:40;;;;;;;2.50;2.25;;;8.50;80.20;;;;;;5055130;28;20177;-65
2022/02/26 12:32:11;;;;;;;1.17;1.08;;;8.40;81.80;;;;;;5055251;28;20165;-66
2022/02/26 12:34:41;;;;;;;2.47;1.55;;;8.40;82.00;;;;;;5054881;28;20182;-65
2022/02/26 12:37:15;;;;;;;1.45;1.20;;;8.30;81.80;;;;;;5055291;28;20196;-64
2022/02/26 12:39:47;;;;;;;1.92;1.58;;;8.30;82.70;;;;;;5055596;28;20161;-65
2022/02/26 12:42:19;;;;;;;1.15;1.00;;;8.20;83.30;;;;;;5055244;28;20253;-65
2022/02/26 12:44:47;;;;;;;1.10;1.00;;;8.20;84.60;;;;;;5054746;28;20310;-66
2022/02/26 12:47:13;;;;;;;3.42;0.98;;;8.00;84.70;;;;;;5055313;28;20165;-64
2022/02/26 12:49:39;;;;;;;2.78;0.88;;;8.00;85.70;;;;;;5054885;28;20189;-64
2022/02/26 12:52:05;;;;;;;0.80;0.80;;;8.10;85.90;;;;;;5054982;28;20173;-65
2022/02/26 12:54:35;;;;;;;2.67;1.10;;;7.90;87.00;;;;;;5054801;28;20219;-66
2022/02/26 12:57:02;;;;;;;2.90;1.05;;;7.90;86.90;;;;;;5054895;28;20255;-64
2022/02/26 12:59:30;;;;;;;8.30;1.42;;;7.90;86.00;;;;;;5054963;28;20252;-64
2022/02/26 13:01:56;;;;;;;1.90;0.90;;;8.00;86.80;;;;;;5052372;28;20173;-63